createdAt,value
2023-05-05T00:02:35.000Z,100232.58
2023-05-05T00:07:35.000Z,100239.52
2023-05-05T00:12:36.000Z,100244.69
2023-05-05T00:17:36.000Z,100251.21
2023-05-05T00:22:35.000Z,100246.46
2023-05-05T00:27:36.000Z,100238.39
2023-05-05T00:32:35.000Z,100232.3
2023-05-05T00:37:35.000Z,100224.83
2023-05-05T00:42:35.000Z,100221.04
2023-05-05T00:47:36.000Z,100221.04
2023-05-05T00:52:35.000Z,100218.28
2023-05-05T00:57:36.000Z,100215.51
2023-05-05T01:02:35.000Z,100219.73
2023-05-05T01:07:36.000Z,100224.41
2023-05-05T01:12:35.000Z,100223.18
2023-05-05T01:17:36.000Z,100215.95
2023-05-05T01:22:36.000Z,100211.51
2023-05-05T01:27:36.000Z,100216.91
2023-05-05T01:32:35.000Z,100215.63
2023-05-05T01:37:35.000Z,100210.01
2023-05-05T01:42:35.000Z,100206.42
2023-05-05T01:47:35.000Z,100201.45
2023-05-05T01:52:36.000Z,100193.47
2023-05-05T01:57:36.000Z,100193.47
2023-05-05T02:02:36.000Z,100195.29
2023-05-05T02:07:36.000Z,100205.94
2023-05-05T02:12:35.000Z,100208.85
2023-05-05T02:17:36.000Z,100205.05
2023-05-05T02:22:36.000Z,100202.79
2023-05-05T02:27:36.000Z,100204.35
2023-05-05T02:32:35.000Z,100200.7
2023-05-05T02:37:35.000Z,100196.46
2023-05-05T02:42:35.000Z,100195.61
2023-05-05T02:47:35.000Z,100201.46
2023-05-05T02:52:36.000Z,100199.79
2023-05-05T02:57:36.000Z,100202.06
2023-05-05T03:02:36.000Z,100200.37
2023-05-05T03:07:35.000Z,100200.37
2023-05-05T03:12:36.000Z,100192.45
2023-05-05T03:17:35.000Z,100188.2
2023-05-05T03:22:36.000Z,100193.91
2023-05-05T03:27:36.000Z,100196.2
2023-05-05T03:32:36.000Z,100198.87
2023-05-05T03:37:35.000Z,100199.13
2023-05-05T03:42:35.000Z,100194.09
2023-05-05T03:47:36.000Z,100193.72
2023-05-05T03:52:35.000Z,100198.35
2023-05-05T03:57:36.000Z,100200.75
2023-05-05T04:02:36.000Z,100209.49
2023-05-05T04:07:35.000Z,100215.14
2023-05-05T04:12:36.000Z,100214.45
2023-05-05T04:17:36.000Z,100213.9
2023-05-05T04:22:36.000Z,100213.9
2023-05-05T04:27:35.000Z,100215.51
2023-05-05T04:32:36.000Z,100219.01
2023-05-05T04:37:36.000Z,100222.57
2023-05-05T04:42:36.000Z,100230.01
2023-05-05T04:47:36.000Z,100233.29
2023-05-05T04:52:35.000Z,100234.16
2023-05-05T04:57:36.000Z,100235.28
2023-05-05T05:02:36.000Z,100233.65
2023-05-05T05:07:36.000Z,100231.54
2023-05-05T05:12:35.000Z,100237.1
2023-05-05T05:17:36.000Z,100240.21
2023-05-05T05:22:35.000Z,100240.3
2023-05-05T05:27:36.000Z,100244.12
2023-05-05T05:32:35.000Z,100244.12
2023-05-05T05:37:36.000Z,100248.61
2023-05-05T05:42:36.000Z,100264.43
2023-05-05T05:47:36.000Z,100262.12
2023-05-05T05:52:36.000Z,100258.78
2023-05-05T05:57:36.000Z,100256.42
2023-05-05T06:02:38.000Z,100255.89
2023-05-05T06:07:35.000Z,100255.14
2023-05-05T06:12:36.000Z,100258.72
2023-05-05T06:17:35.000Z,100260.34
2023-05-05T06:22:36.000Z,100261.88
2023-05-05T06:27:36.000Z,100260.63
2023-05-05T06:32:35.000Z,100257.29
2023-05-05T06:37:36.000Z,100257.29
2023-05-05T06:42:35.000Z,100261.68
2023-05-05T06:47:36.000Z,100243.63
2023-05-05T06:52:36.000Z,100249.88
2023-05-05T06:57:35.000Z,100252.6
2023-05-05T07:02:37.000Z,100260
2023-05-05T07:07:36.000Z,100267.95
2023-05-05T07:12:36.000Z,100273.64
2023-05-05T07:17:36.000Z,100280.69
2023-05-05T07:22:35.000Z,100289.5
2023-05-05T07:27:35.000Z,100299.89
2023-05-05T07:32:35.000Z,100307.95
2023-05-05T07:37:35.000Z,100309.67
2023-05-05T07:42:35.000Z,100313.08
2023-05-05T07:47:36.000Z,100306.61
2023-05-05T07:52:56.000Z,100307.78
2023-05-05T07:57:35.000Z,100307.78
2023-05-05T08:02:36.000Z,100311.54
2023-05-05T08:07:35.000Z,100306.92
2023-05-05T08:12:35.000Z,100321.35
2023-05-05T08:17:35.000Z,100331.13
2023-05-05T08:22:35.000Z,100322.3
2023-05-05T08:27:35.000Z,100324.33
2023-05-05T08:32:39.000Z,100338.49
2023-05-05T08:37:35.000Z,100345.81
2023-05-05T08:42:46.000Z,100354.98
2023-05-05T08:47:35.000Z,100359.97
2023-05-05T08:52:36.000Z,100364.06
2023-05-05T08:57:35.000Z,100370.59
2023-05-05T09:02:35.000Z,100370.59
2023-05-05T09:07:35.000Z,100379.79
2023-05-05T09:12:35.000Z,100385.42
2023-05-05T09:17:35.000Z,100396.66
2023-05-05T09:22:35.000Z,100407.78
2023-05-05T09:27:36.000Z,100406.93
2023-05-05T09:32:35.000Z,100409.46
2023-05-05T09:37:35.000Z,100408.43
2023-05-05T09:42:36.000Z,100401.48
2023-05-05T09:47:40.000Z,100398.39
2023-05-05T09:52:36.000Z,100404.74
2023-05-05T09:57:36.000Z,100406.67
2023-05-05T10:02:35.000Z,100407.37
2023-05-05T10:07:36.000Z,100420.07
2023-05-05T10:12:36.000Z,100423.37
2023-05-05T10:17:35.000Z,100423.37
2023-05-05T10:22:36.000Z,100416.9
2023-05-05T10:27:35.000Z,100412.4
2023-05-05T10:33:01.000Z,100411.07
2023-05-05T10:37:35.000Z,100406.07
2023-05-05T10:42:36.000Z,100401.8
2023-05-05T10:47:35.000Z,100400.99
2023-05-05T10:52:36.000Z,100396.65
2023-05-05T10:57:36.000Z,100392.21
2023-05-05T11:02:36.000Z,100392.17
2023-05-05T11:07:36.000Z,100394.01
2023-05-05T11:12:38.000Z,100397.23
2023-05-05T11:17:36.000Z,100396.9
2023-05-05T11:22:36.000Z,100396.9
2023-05-05T11:27:35.000Z,100390.41
2023-05-05T11:32:35.000Z,100393.11
2023-05-05T11:37:36.000Z,100397.05
2023-05-05T11:42:35.000Z,100394.51
2023-05-05T11:47:36.000Z,100400.36
2023-05-05T11:52:35.000Z,100400.75
2023-05-05T11:57:35.000Z,100401.21
2023-05-05T12:02:35.000Z,100402.66
2023-05-05T12:07:36.000Z,100400.41
2023-05-05T12:12:35.000Z,100400.54
2023-05-05T12:17:36.000Z,100405.32
2023-05-05T12:22:35.000Z,100413.34
2023-05-05T12:27:36.000Z,100420.05
2023-05-05T12:32:35.000Z,100420.88
2023-05-05T12:37:36.000Z,100420.88
2023-05-05T12:42:36.000Z,100421.58
2023-05-05T12:47:35.000Z,100413.66
2023-05-05T12:52:36.000Z,100409.83
2023-05-05T12:57:35.000Z,100412.63
2023-05-05T13:02:36.000Z,100418.97
2023-05-05T13:07:36.000Z,100417.1
2023-05-05T13:12:36.000Z,100419.09
2023-05-05T13:17:36.000Z,100425.59
2023-05-05T13:22:35.000Z,100422.85
2023-05-05T13:27:35.000Z,100425.13
2023-05-05T13:32:36.000Z,100426.32
2023-05-05T13:37:36.000Z,100418.45
2023-05-05T13:42:35.000Z,100418.45
2023-05-05T13:47:36.000Z,100415.58
2023-05-05T13:52:36.000Z,100409.65
2023-05-05T13:57:35.000Z,100415.61
2023-05-05T14:02:35.000Z,100416.23
2023-05-05T14:07:36.000Z,100423.23
2023-05-05T14:12:35.000Z,100425.82
2023-05-05T14:17:36.000Z,100428.76
2023-05-05T14:22:36.000Z,100435.69
2023-05-05T14:27:36.000Z,100432.15
2023-05-05T14:32:35.000Z,100433.26
2023-05-05T14:37:35.000Z,100429.48
2023-05-05T14:42:36.000Z,100430.17
2023-05-05T14:47:35.000Z,100428.27
2023-05-05T14:52:36.000Z,100423.68
2023-05-05T14:57:35.000Z,100423.68
2023-05-05T15:02:35.000Z,100430.1
2023-05-05T15:07:36.000Z,100431.28
2023-05-05T15:12:35.000Z,100434.12
2023-05-05T15:17:36.000Z,100434.3
2023-05-05T15:22:36.000Z,100430.49
2023-05-05T15:27:35.000Z,100431.98
2023-05-05T15:32:36.000Z,100429.02
2023-05-05T15:37:36.000Z,100426.06
2023-05-05T15:42:35.000Z,100429.44
2023-05-05T15:47:35.000Z,100425.62
2023-05-05T15:52:36.000Z,100428.84
2023-05-05T15:57:36.000Z,100431.57
2023-05-05T16:02:36.000Z,100428.16
2023-05-05T16:07:55.000Z,100427.86
2023-05-05T16:12:35.000Z,100427.86
2023-05-05T16:17:36.000Z,100427.14
2023-05-05T16:22:35.000Z,100434.66
2023-05-05T16:27:35.000Z,100441.39
2023-05-05T16:32:36.000Z,100443.72
2023-05-05T16:37:36.000Z,100447.18
2023-05-05T16:42:35.000Z,100443.22
2023-05-05T16:47:36.000Z,100440.72
2023-05-05T16:52:36.000Z,100438.41
2023-05-05T16:57:36.000Z,100434.05
2023-05-05T17:02:36.000Z,100430.56
2023-05-05T17:07:36.000Z,100429.22
2023-05-05T17:12:36.000Z,100428.06
2023-05-05T17:17:36.000Z,100428.48
2023-05-05T17:22:36.000Z,100428.8
2023-05-05T17:27:35.000Z,100437.28
2023-05-05T17:32:35.000Z,100442.29
2023-05-05T17:37:35.000Z,100442.92
2023-05-05T17:42:36.000Z,100440.86
2023-05-05T17:47:36.000Z,100441.29
2023-05-05T17:52:36.000Z,100440.25
2023-05-05T17:57:35.000Z,100436.88
2023-05-05T18:02:35.000Z,100435.95
2023-05-05T18:07:35.000Z,100435.95
2023-05-05T18:12:36.000Z,100430.14
2023-05-05T18:17:36.000Z,100430.61
2023-05-05T18:22:35.000Z,100432.8
2023-05-05T18:27:36.000Z,100440.45
2023-05-05T18:32:36.000Z,100437.99
2023-05-05T18:37:36.000Z,100437.82
2023-05-05T18:42:35.000Z,100435.99
2023-05-05T18:47:35.000Z,100436.54
2023-05-05T18:52:35.000Z,100437.6
2023-05-05T18:57:36.000Z,100443.37
2023-05-05T19:02:35.000Z,100444.13
2023-05-05T19:07:45.000Z,100445.26
2023-05-05T19:12:35.000Z,100443.61
2023-05-05T19:17:36.000Z,100442.03
2023-05-05T19:22:35.000Z,100439.84
2023-05-05T19:27:36.000Z,100440.48
2023-05-05T19:32:36.000Z,100435.47
2023-05-05T19:37:36.000Z,100433.89
2023-05-05T19:42:35.000Z,100436.07
2023-05-05T19:47:35.000Z,100436.73
2023-05-05T19:52:36.000Z,100436.73
2023-05-05T19:57:35.000Z,100437.58
2023-05-05T20:02:35.000Z,100435.15
2023-05-05T20:07:36.000Z,100434.74
2023-05-05T20:12:35.000Z,100433.44
2023-05-05T20:17:35.000Z,100434.78
2023-05-05T20:22:36.000Z,100435.28
2023-05-05T20:27:38.000Z,100435.89
2023-05-05T20:32:36.000Z,100434.93
2023-05-05T20:37:36.000Z,100431.58
2023-05-05T20:42:36.000Z,100432.28
2023-05-05T20:47:35.000Z,100434.65
2023-05-05T20:52:36.000Z,100438.61
2023-05-05T20:57:35.000Z,100437.14
2023-05-05T21:02:35.000Z,100437.14
2023-05-05T21:07:36.000Z,100433.94
2023-05-05T21:12:35.000Z,100430.89
2023-05-05T21:17:36.000Z,100430
2023-05-05T21:22:35.000Z,100429.42
2023-05-05T21:27:36.000Z,100427.53
2023-05-05T21:32:35.000Z,100426.96
2023-05-05T21:37:36.000Z,100422.71
2023-05-05T21:42:35.000Z,100420.31
2023-05-05T21:47:36.000Z,100422.94
2023-05-05T21:52:35.000Z,100420.71
2023-05-05T21:57:35.000Z,100421.55
2023-05-05T22:02:36.000Z,100415.77
2023-05-05T22:07:35.000Z,100422
2023-05-05T22:12:35.000Z,100422
2023-05-05T22:17:35.000Z,100423.36
2023-05-05T22:22:35.000Z,100423.47
2023-05-05T22:27:35.000Z,100422.15
2023-05-05T22:32:36.000Z,100424.24
2023-05-05T22:37:36.000Z,100426.54
2023-05-05T22:42:35.000Z,100431.37
2023-05-05T22:47:36.000Z,100428.81
2023-05-05T22:52:35.000Z,100425.42
2023-05-05T22:57:35.000Z,100419.69
2023-05-05T23:02:36.000Z,100421.06
2023-05-05T23:07:35.000Z,100425.46
2023-05-05T23:12:35.000Z,100428.49
2023-05-05T23:17:35.000Z,100430.64
2023-05-05T23:22:35.000Z,100430.64
2023-05-05T23:27:35.000Z,100429.44
2023-05-05T23:32:35.000Z,100435.02
2023-05-05T23:37:36.000Z,100435.36
2023-05-05T23:42:35.000Z,100437.22
2023-05-05T23:47:35.000Z,100439.43
2023-05-05T23:52:36.000Z,100446.21
2023-05-05T23:57:36.000Z,100445.97
